createdAt,value
2023-03-03T00:01:34.786Z,-1.21
2023-03-03T00:04:37.363Z,-1.26
2023-03-03T00:07:39.874Z,-1.24
2023-03-03T00:10:42.207Z,-1.32
2023-03-03T00:13:49.029Z,-1.37
2023-03-03T00:16:51.422Z,-1.40
2023-03-03T00:19:54.578Z,-1.38
2023-03-03T00:22:58.316Z,-1.47
2023-03-03T00:26:00.970Z,-1.47
2023-03-03T00:29:03.969Z,-1.54
2023-03-03T00:32:26.414Z,-1.49
2023-03-03T00:35:35.847Z,-1.49
2023-03-03T00:38:38.825Z,-1.50
2023-03-03T00:41:41.333Z,-1.45
2023-03-03T00:44:44.788Z,-1.45
2023-03-03T00:47:47.281Z,-1.79
2023-03-03T00:50:50.776Z,-1.72
2023-03-03T00:53:53.202Z,-1.76
2023-03-03T00:56:55.510Z,-1.87
2023-03-03T00:59:58.214Z,-1.94
2023-03-03T01:03:07.055Z,-1.89
2023-03-03T01:06:10.069Z,-1.92
2023-03-03T01:09:12.790Z,-2.07
2023-03-03T01:12:15.401Z,-1.99
2023-03-03T01:15:18.380Z,-1.79
2023-03-03T01:18:21.008Z,-1.69
2023-03-03T01:21:23.758Z,-1.64
2023-03-03T01:24:26.086Z,-1.59
2023-03-03T01:27:28.787Z,-1.62
2023-03-03T01:30:31.708Z,-1.69
2023-03-03T01:33:35.296Z,-1.76
2023-03-03T01:36:37.902Z,-1.71
2023-03-03T01:39:40.217Z,-1.74
2023-03-03T01:42:43.069Z,-1.84
2023-03-03T01:45:48.178Z,-1.72
2023-03-03T01:48:53.038Z,-1.77
2023-03-03T01:51:58.280Z,-1.66
2023-03-03T01:55:15.026Z,-1.67
2023-03-03T01:58:24.299Z,-1.76
2023-03-03T02:01:28.673Z,-2.00
2023-03-03T02:04:32.570Z,-2.10
2023-03-03T02:07:35.474Z,-2.16
2023-03-03T02:10:38.120Z,-2.32
2023-03-03T02:13:40.547Z,-1.97
2023-03-03T02:16:43.440Z,-1.80
2023-03-03T02:20:17.888Z,-1.70
2023-03-03T02:23:26.765Z,-1.87
2023-03-03T02:26:31.433Z,-1.81
2023-03-03T02:29:38.767Z,-2.11
2023-03-03T02:32:42.967Z,-1.91
2023-03-03T02:35:45.432Z,-2.23
2023-03-03T02:39:04.354Z,-2.21
2023-03-03T02:42:09.789Z,-1.90
2023-03-03T02:45:17.673Z,-2.37
2023-03-03T02:48:20.608Z,-2.55
2023-03-03T02:51:23.131Z,-2.17
2023-03-03T02:54:27.228Z,-2.20
2023-03-03T02:57:29.600Z,-2.14
2023-03-03T03:00:32.544Z,-2.30
2023-03-03T03:03:36.438Z,-2.28
2023-03-03T03:06:41.287Z,-2.31
2023-03-03T03:09:44.210Z,-2.28
2023-03-03T03:12:46.604Z,-2.46
2023-03-03T03:15:49.820Z,-2.57
2023-03-03T03:18:52.293Z,-2.37
2023-03-03T03:21:54.640Z,-2.30
2023-03-03T03:24:57.689Z,-1.97
2023-03-03T03:28:01.165Z,-2.42
2023-03-03T03:31:05.059Z,-2.09
2023-03-03T03:34:08.717Z,-2.21
2023-03-03T03:37:11.043Z,-2.23
2023-03-03T03:40:14.368Z,-2.21
2023-03-03T03:43:16.913Z,-2.49
2023-03-03T03:46:19.793Z,-2.55
2023-03-03T03:49:22.341Z,-2.62
2023-03-03T03:52:27.058Z,-2.58
2023-03-03T03:55:30.050Z,-2.62
2023-03-03T03:58:32.568Z,-2.37
2023-03-03T04:01:39.044Z,-2.62
2023-03-03T04:04:41.592Z,-2.38
2023-03-03T04:07:44.101Z,-2.25
2023-03-03T04:10:46.776Z,-2.22
2023-03-03T04:13:49.198Z,-2.39
2023-03-03T04:16:52.059Z,-2.46
2023-03-03T04:19:54.598Z,-2.61
2023-03-03T04:22:58.100Z,-2.64
2023-03-03T04:26:01.687Z,-2.54
2023-03-03T04:29:04.149Z,-2.57
2023-03-03T04:32:06.667Z,-2.64
2023-03-03T04:35:10.422Z,-2.66
2023-03-03T04:38:16.473Z,-2.71
2023-03-03T04:41:19.335Z,-2.68
2023-03-03T04:44:22.400Z,-2.74
2023-03-03T04:47:25.111Z,-2.66
2023-03-03T04:50:28.389Z,-2.70
2023-03-03T04:53:31.003Z,-2.69
2023-03-03T04:56:33.301Z,-2.72
2023-03-03T04:59:36.434Z,-2.69
2023-03-03T05:02:38.938Z,-2.83
2023-03-03T05:05:42.122Z,-2.85
2023-03-03T05:08:44.473Z,-3.25
2023-03-03T05:11:47.184Z,-3.02
2023-03-03T05:14:49.580Z,-2.73
2023-03-03T05:17:53.590Z,-2.65
2023-03-03T05:20:56.179Z,-2.60
2023-03-03T05:23:58.592Z,-2.62
2023-03-03T05:27:01.162Z,-2.40
2023-03-03T05:30:03.599Z,-2.23
2023-03-03T05:33:06.747Z,-2.30
2023-03-03T05:36:09.466Z,-2.39
2023-03-03T05:39:11.883Z,-2.38
2023-03-03T05:42:14.234Z,-2.36
2023-03-03T05:45:16.716Z,-2.58
2023-03-03T05:48:19.205Z,-2.52
2023-03-03T05:51:21.587Z,-2.34
2023-03-03T05:54:23.971Z,-2.08
2023-03-03T05:57:26.296Z,-2.38
2023-03-03T06:00:28.756Z,-2.56
2023-03-03T06:03:31.911Z,-2.68
2023-03-03T06:06:34.433Z,-2.43
2023-03-03T06:09:37.242Z,-2.50
2023-03-03T06:12:41.241Z,-2.38
2023-03-03T06:15:44.015Z,-2.44
2023-03-03T06:18:46.459Z,-2.39
2023-03-03T06:21:48.873Z,-2.47
2023-03-03T06:24:52.726Z,-2.36
2023-03-03T06:27:55.003Z,-2.51
2023-03-03T06:30:57.861Z,-2.44
2023-03-03T06:34:00.248Z,-2.52
2023-03-03T06:37:02.693Z,-2.44
2023-03-03T06:40:06.627Z,-2.34
2023-03-03T06:43:09.915Z,-2.29
2023-03-03T06:46:12.833Z,-2.38
2023-03-03T06:49:15.783Z,-2.18
2023-03-03T06:52:26.917Z,-2.25
2023-03-03T06:55:29.327Z,-2.16
2023-03-03T06:58:32.134Z,-2.10
2023-03-03T07:01:37.876Z,-2.37
2023-03-03T07:04:40.318Z,-2.13
2023-03-03T07:07:43.396Z,-2.08
2023-03-03T07:10:48.700Z,-2.04
2023-03-03T07:13:52.864Z,-2.01
2023-03-03T07:17:02.047Z,-1.99
2023-03-03T07:20:16.178Z,-1.91
2023-03-03T07:23:42.620Z,-1.83
2023-03-03T07:26:45.694Z,-1.71
2023-03-03T07:29:49.969Z,-1.76
2023-03-03T07:32:56.770Z,-1.83
2023-03-03T07:36:00.319Z,-1.61
2023-03-03T07:39:12.260Z,-1.58
2023-03-03T07:42:30.114Z,-1.38
2023-03-03T07:45:44.113Z,-1.37
2023-03-03T07:48:46.791Z,-1.27
2023-03-03T07:51:54.605Z,-1.13
2023-03-03T07:54:58.902Z,-1.06
2023-03-03T07:58:14.925Z,-0.95
2023-03-03T08:01:40.020Z,-1.30
2023-03-03T08:04:47.616Z,-1.35
2023-03-03T08:07:52.877Z,-1.05
2023-03-03T08:10:57.512Z,-0.93
2023-03-03T08:14:00.382Z,-0.95
2023-03-03T08:17:02.859Z,-1.10
2023-03-03T08:20:43.661Z,-0.97
2023-03-03T08:23:46.233Z,-0.87
2023-03-03T08:26:48.645Z,-1.10
2023-03-03T08:29:51.038Z,-0.83
2023-03-03T08:32:53.331Z,-0.81
2023-03-03T08:35:55.712Z,-0.61
2023-03-03T08:38:58.189Z,-0.29
2023-03-03T08:42:00.763Z,-0.63
2023-03-03T08:45:03.156Z,-0.66
2023-03-03T08:48:06.295Z,-0.53
2023-03-03T08:51:08.746Z,-0.28
2023-03-03T08:54:11.170Z,-0.06
2023-03-03T08:57:13.480Z,-0.25
2023-03-03T09:00:17.678Z,-0.50
2023-03-03T09:03:20.152Z,-0.58
2023-03-03T09:06:22.595Z,-0.23
2023-03-03T09:09:25.417Z,-0.02
2023-03-03T09:12:40.579Z,-0.24
2023-03-03T09:15:43.436Z,0.05
2023-03-03T09:18:45.753Z,0.22
2023-03-03T09:21:48.209Z,0.35
2023-03-03T09:24:54.420Z,0.32
2023-03-03T09:27:56.795Z,0.13
2023-03-03T09:31:01.522Z,0.26
2023-03-03T09:34:14.689Z,0.40
2023-03-03T09:37:32.820Z,0.29
2023-03-03T09:40:48.477Z,0.40
2023-03-03T09:44:12.342Z,0.70
2023-03-03T09:47:33.358Z,0.61
2023-03-03T09:50:53.991Z,0.43
2023-03-03T09:54:23.985Z,0.73
2023-03-03T09:58:10.549Z,0.89
2023-03-03T10:01:37.628Z,0.60
2023-03-03T10:05:21.708Z,0.45
2023-03-03T10:08:31.710Z,0.70
2023-03-03T10:11:54.667Z,1.03
2023-03-03T10:15:15.593Z,1.41
2023-03-03T10:18:32.272Z,1.18
2023-03-03T10:22:06.861Z,1.48
2023-03-03T10:25:18.077Z,1.25
2023-03-03T10:28:32.319Z,0.96
2023-03-03T10:31:53.968Z,1.10
2023-03-03T10:35:14.424Z,1.26
2023-03-03T10:38:22.881Z,1.61
2023-03-03T10:41:44.647Z,1.41
2023-03-03T10:45:11.294Z,1.43
2023-03-03T10:48:22.954Z,1.67
2023-03-03T10:51:28.139Z,1.66
2023-03-03T10:54:36.298Z,1.74
2023-03-03T10:57:44.542Z,1.74
2023-03-03T11:01:09.775Z,1.87
2023-03-03T11:04:30.672Z,1.59
2023-03-03T11:07:45.718Z,1.58
2023-03-03T11:11:09.975Z,1.55
2023-03-03T11:14:30.646Z,1.94
2023-03-03T11:17:53.305Z,1.87
2023-03-03T11:21:17.029Z,2.23
2023-03-03T11:24:25.361Z,2.04
2023-03-03T11:27:55.864Z,2.15
2023-03-03T11:31:04.046Z,2.12
2023-03-03T11:34:25.120Z,2.42
2023-03-03T11:37:38.309Z,2.43
2023-03-03T11:40:52.534Z,2.70
2023-03-03T11:44:31.537Z,2.53
2023-03-03T11:48:00.447Z,2.37
2023-03-03T11:51:35.850Z,2.43
2023-03-03T11:54:47.891Z,3.37
2023-03-03T11:57:57.302Z,3.27
2023-03-03T12:01:12.062Z,3.23
2023-03-03T12:04:16.952Z,3.28
2023-03-03T12:07:28.674Z,3.37
2023-03-03T12:10:38.852Z,3.32
2023-03-03T12:13:55.934Z,3.67
2023-03-03T12:17:11.557Z,3.50
2023-03-03T12:20:43.136Z,3.52
2023-03-03T12:24:04.871Z,3.61
2023-03-03T12:27:15.780Z,3.90
2023-03-03T12:30:27.712Z,3.98
2023-03-03T12:34:04.264Z,3.88
2023-03-03T12:37:37.180Z,3.85
2023-03-03T12:41:17.045Z,3.52
2023-03-03T12:44:34.299Z,3.56
2023-03-03T12:47:49.138Z,3.48
2023-03-03T12:51:13.208Z,3.19
2023-03-03T12:54:54.120Z,2.76
2023-03-03T12:58:25.557Z,2.74
2023-03-03T13:01:28.667Z,2.59
2023-03-03T13:04:36.685Z,2.51
2023-03-03T13:07:46.375Z,2.42
2023-03-03T13:10:54.892Z,2.57
2023-03-03T13:14:18.557Z,2.41
2023-03-03T13:17:26.244Z,2.83
2023-03-03T13:20:50.683Z,3.22
2023-03-03T13:24:10.980Z,3.74
2023-03-03T13:27:20.448Z,3.83
2023-03-03T13:30:28.552Z,3.89
2023-03-03T13:33:35.064Z,3.88
2023-03-03T13:36:52.521Z,3.76
2023-03-03T13:40:01.765Z,3.75
2023-03-03T13:43:10.884Z,3.98
2023-03-03T13:46:21.929Z,3.80
2023-03-03T13:49:47.712Z,3.81
2023-03-03T13:53:16.516Z,3.86
2023-03-03T13:56:36.613Z,4.29
2023-03-03T13:59:47.893Z,3.89
2023-03-03T14:03:11.970Z,3.86
2023-03-03T14:06:19.626Z,4.00
2023-03-03T14:09:53.049Z,3.88
2023-03-03T14:13:05.812Z,3.44
2023-03-03T14:16:13.653Z,3.08
2023-03-03T14:19:19.724Z,2.97
2023-03-03T14:22:39.813Z,3.07
2023-03-03T14:26:13.656Z,2.77
2023-03-03T14:29:28.171Z,2.75
2023-03-03T14:32:44.536Z,2.70
2023-03-03T14:35:59.650Z,2.46
2023-03-03T14:39:01.858Z,2.70
2023-03-03T14:42:34.098Z,2.61
2023-03-03T14:45:39.100Z,3.27
2023-03-03T14:48:51.837Z,3.37
2023-03-03T14:51:54.368Z,3.51
2023-03-03T14:55:05.363Z,3.39
2023-03-03T14:58:30.619Z,3.03
2023-03-03T15:01:36.575Z,3.00
2023-03-03T15:04:39.715Z,2.56
2023-03-03T15:07:42.090Z,2.27
2023-03-03T15:10:46.236Z,2.52
2023-03-03T15:13:48.767Z,1.90
2023-03-03T15:16:51.169Z,2.17
2023-03-03T15:20:13.952Z,2.52
2023-03-03T15:23:34.811Z,2.35
2023-03-03T15:26:53.722Z,2.33
2023-03-03T15:30:06.770Z,2.09
2023-03-03T15:33:24.252Z,2.17
2023-03-03T15:36:38.784Z,2.04
2023-03-03T15:40:04.502Z,1.64
2023-03-03T15:43:10.683Z,1.68
2023-03-03T15:46:17.665Z,1.90
2023-03-03T15:49:55.029Z,2.00
2023-03-03T15:53:23.245Z,1.83
2023-03-03T15:56:48.194Z,1.75
2023-03-03T16:00:00.004Z,1.57
2023-03-03T16:03:17.491Z,1.62
2023-03-03T16:06:47.701Z,1.41
2023-03-03T16:10:12.209Z,1.50
2023-03-03T16:13:29.891Z,1.42
2023-03-03T16:16:38.392Z,1.43
2023-03-03T16:19:52.316Z,1.44
2023-03-03T16:23:32.420Z,1.31
2023-03-03T16:26:51.665Z,1.27
2023-03-03T16:30:29.808Z,1.14
2023-03-03T16:33:45.158Z,1.14
2023-03-03T16:37:17.034Z,1.17
2023-03-03T16:40:37.661Z,1.00
2023-03-03T16:44:01.011Z,1.04
2023-03-03T16:47:21.962Z,0.92
2023-03-03T16:50:48.838Z,1.03
2023-03-03T16:54:02.958Z,0.96
2023-03-03T16:57:33.566Z,0.91
2023-03-03T17:00:50.784Z,0.92
2023-03-03T17:04:03.767Z,0.99
2023-03-03T17:07:25.677Z,0.87
2023-03-03T17:10:50.745Z,0.92
2023-03-03T17:13:55.844Z,0.86
2023-03-03T17:17:02.530Z,0.92
2023-03-03T17:20:24.624Z,0.86
2023-03-03T17:23:42.689Z,0.86
2023-03-03T17:27:07.108Z,0.77
2023-03-03T17:30:13.854Z,0.86
2023-03-03T17:33:29.595Z,0.73
2023-03-03T17:37:04.354Z,0.72
2023-03-03T17:40:13.477Z,0.67
2023-03-03T17:43:20.771Z,0.64
2023-03-03T17:46:56.424Z,0.58
2023-03-03T17:50:10.618Z,0.40
2023-03-03T17:53:16.891Z,0.40
2023-03-03T17:56:33.081Z,0.56
2023-03-03T18:00:09.216Z,0.51
2023-03-03T18:03:41.023Z,0.41
2023-03-03T18:06:56.733Z,0.42
2023-03-03T18:10:10.477Z,0.33
2023-03-03T18:13:31.295Z,0.28
2023-03-03T18:17:00.490Z,0.39
2023-03-03T18:20:12.097Z,0.40
2023-03-03T18:23:34.061Z,0.35
2023-03-03T18:26:41.812Z,0.32
2023-03-03T18:30:20.735Z,0.39
2023-03-03T18:33:43.807Z,0.36
2023-03-03T18:37:01.423Z,0.38
2023-03-03T18:40:03.747Z,0.39
2023-03-03T18:43:43.721Z,0.37
2023-03-03T18:46:48.705Z,0.39
2023-03-03T18:49:55.766Z,0.37
2023-03-03T18:53:22.823Z,0.40
2023-03-03T18:57:00.686Z,0.30
2023-03-03T19:00:25.591Z,0.37
2023-03-03T19:03:33.700Z,0.23
2023-03-03T19:06:39.081Z,0.39
2023-03-03T19:10:03.003Z,0.40
2023-03-03T19:13:32.000Z,0.47
2023-03-03T19:16:37.578Z,0.32
2023-03-03T19:20:02.903Z,0.37
2023-03-03T19:23:07.706Z,0.26
2023-03-03T19:26:25.268Z,0.41
2023-03-03T19:29:46.061Z,0.32
2023-03-03T19:33:00.721Z,0.30
2023-03-03T19:36:22.168Z,0.19
2023-03-03T19:40:00.935Z,0.25
2023-03-03T19:43:05.972Z,0.28
2023-03-03T19:46:14.086Z,0.26
2023-03-03T19:49:25.361Z,0.23
2023-03-03T19:52:41.512Z,0.24
2023-03-03T19:56:14.556Z,0.18
2023-03-03T19:59:31.930Z,0.26
2023-03-03T20:02:47.223Z,0.08
2023-03-03T20:05:54.349Z,0.04
2023-03-03T20:09:04.974Z,0.13
2023-03-03T20:12:07.306Z,0.23
2023-03-03T20:15:18.995Z,0.13
2023-03-03T20:18:21.281Z,0.09
2023-03-03T20:21:42.021Z,0.07
2023-03-03T20:25:09.455Z,0.08
2023-03-03T20:28:38.920Z,0.23
2023-03-03T20:32:12.273Z,0.38
2023-03-03T20:35:46.102Z,0.28
2023-03-03T20:39:02.436Z,0.27
2023-03-03T20:42:10.778Z,0.34
2023-03-03T20:45:22.044Z,0.21
2023-03-03T20:48:39.425Z,0.23
2023-03-03T20:51:49.257Z,0.32
2023-03-03T20:55:15.291Z,0.40
2023-03-03T20:58:42.206Z,0.70
2023-03-03T21:01:57.076Z,0.63
2023-03-03T21:05:19.864Z,0.68
2023-03-03T21:08:52.897Z,0.56
2023-03-03T21:11:55.884Z,0.54
2023-03-03T21:15:35.811Z,0.51
2023-03-03T21:18:39.107Z,0.72
2023-03-03T21:21:45.352Z,0.61
2023-03-03T21:24:51.907Z,0.76
2023-03-03T21:27:58.999Z,0.74
2023-03-03T21:31:08.274Z,0.55
2023-03-03T21:34:40.483Z,0.79
2023-03-03T21:37:51.827Z,0.47
2023-03-03T21:41:01.645Z,1.06
2023-03-03T21:44:50.064Z,0.76
2023-03-03T21:47:55.164Z,0.86
2023-03-03T21:51:00.146Z,0.61
2023-03-03T21:54:02.493Z,0.87
2023-03-03T21:57:04.972Z,0.79
2023-03-03T22:00:12.095Z,0.97
2023-03-03T22:03:15.523Z,0.91
2023-03-03T22:06:17.918Z,0.90
2023-03-03T22:09:20.766Z,1.14
2023-03-03T22:12:23.105Z,0.88
2023-03-03T22:15:25.552Z,0.96
2023-03-03T22:18:27.864Z,0.92
2023-03-03T22:21:31.089Z,1.24
2023-03-03T22:24:33.607Z,1.18
2023-03-03T22:27:35.941Z,1.07
2023-03-03T22:30:38.404Z,1.02
2023-03-03T22:33:40.834Z,0.79
2023-03-03T22:36:43.211Z,0.89
2023-03-03T22:39:45.616Z,0.92
2023-03-03T22:42:47.936Z,0.94
2023-03-03T22:45:50.651Z,0.84
2023-03-03T22:48:53.212Z,1.11
2023-03-03T22:51:58.803Z,1.06
2023-03-03T22:55:01.202Z,1.09
2023-03-03T22:58:05.479Z,1.14
2023-03-03T23:01:08.869Z,1.04
2023-03-03T23:04:11.262Z,1.00
2023-03-03T23:07:13.615Z,0.97
2023-03-03T23:10:16.029Z,1.03
2023-03-03T23:13:18.447Z,0.87
2023-03-03T23:16:20.914Z,1.04
2023-03-03T23:19:23.336Z,1.05
2023-03-03T23:22:25.769Z,0.89
2023-03-03T23:25:29.046Z,0.95
2023-03-03T23:28:31.711Z,1.00
2023-03-03T23:31:34.140Z,1.02
2023-03-03T23:34:36.628Z,0.83
2023-03-03T23:37:38.985Z,0.82
2023-03-03T23:40:42.506Z,0.86
2023-03-03T23:43:44.914Z,0.97
2023-03-03T23:46:47.294Z,0.95
2023-03-03T23:49:49.584Z,0.92
2023-03-03T23:52:52.287Z,0.94
2023-03-03T23:55:54.640Z,0.85
2023-03-03T23:58:56.988Z,1.15
